Time;durP1;ratioP1;P1;durP2;ratioP2;P2;SDS_P1;SDS_P2;PMS_P1;PMS_P2;Temp;Humidity;BMP_temperature;BMP_pressure;BME280_temperature;BME280_humidity;BME280_pressure;Samples;Min_cycle;Max_cycle;Signal;HPM_P1;HPM_P2
2023/03/07 00:00:58;;;;;;;61.65;23.83;;;0.10;99.90;;;;;;5068784;28;20037;-83
2023/03/07 00:03:24;;;;;;;53.67;22.52;;;0.20;99.90;;;;;;5035583;28;20017;-84
2023/03/07 00:06:07;;;;;;;59.85;24.85;;;0.20;99.90;;;;;;5035883;28;20021;-83
2023/03/07 00:08:33;;;;;;;64.18;25.30;;;0.10;99.90;;;;;;5035763;28;20086;-83
2023/03/07 00:11:04;;;;;;;54.67;22.48;;;0.10;99.90;;;;;;5051822;28;20025;-83
2023/03/07 00:13:30;;;;;;;;;;;0.20;99.90;;;;;;5051792;28;20403;-84
2023/03/07 00:16:17;;;;;;;63.47;23.58;;;0.20;99.90;;;;;;5051731;28;19908;-84
2023/03/07 00:18:43;;;;;;;60.10;24.95;;;0.20;99.90;;;;;;5079483;28;20033;-84
2023/03/07 00:21:12;;;;;;;62.10;25.70;;;0.20;99.90;;;;;;5067684;28;20036;-84
2023/03/07 00:23:40;;;;;;;51.58;22.48;;;0.20;99.90;;;;;;5052686;28;20413;-84
2023/03/07 00:26:09;;;;;;;60.13;22.13;;;0.20;99.90;;;;;;5034654;28;20087;-84
2023/03/07 00:28:36;;;;;;;61.70;23.92;;;0.20;99.90;;;;;;5034944;28;20057;-83
2023/03/07 00:31:07;;;;;;;56.78;24.05;;;0.20;99.90;;;;;;5034135;28;20122;-83
2023/03/07 00:33:34;;;;;;;65.43;24.98;;;0.20;99.90;;;;;;5031103;28;20038;-83
2023/03/07 00:36:03;;;;;;;56.10;25.48;;;0.10;99.90;;;;;;5034146;28;20065;-84
2023/03/07 00:38:30;;;;;;;61.72;24.30;;;0.10;99.90;;;;;;5034913;28;20031;-83
2023/03/07 00:41:11;;;;;;;62.45;26.02;;;0.10;99.90;;;;;;5050889;28;20025;-83
2023/03/07 00:43:38;;;;;;;67.15;26.50;;;0.10;99.90;;;;;;5051380;28;20035;-83
2023/03/07 00:46:04;;;;;;;63.63;24.40;;;0.00;99.90;;;;;;5051503;28;20108;-84
2023/03/07 00:48:33;;;;;;;64.40;24.38;;;0.00;99.90;;;;;;5031242;28;20030;-84
2023/03/07 00:50:59;;;;;;;59.05;24.40;;;0.00;99.90;;;;;;5030193;28;20032;-84
2023/03/07 00:53:25;;;;;;;72.60;26.77;;;0.00;99.90;;;;;;5034172;28;20017;-83
2023/03/07 00:56:06;;;;;;;64.90;26.52;;;0.00;99.90;;;;;;5034881;28;20036;-84
2023/03/07 00:58:35;;;;;;;65.50;26.30;;;0.00;99.90;;;;;;5035070;28;20112;-83
2023/03/07 01:01:03;;;;;;;73.22;26.77;;;0.00;99.90;;;;;;5034810;28;20024;-84
2023/03/07 01:03:29;;;;;;;78.35;27.75;;;0.00;99.90;;;;;;5031570;28;20025;-84
2023/03/07 01:05:55;;;;;;;68.13;25.83;;;-0.10;99.90;;;;;;5034797;28;20025;-84
2023/03/07 01:08:22;;;;;;;76.78;27.17;;;-0.10;99.90;;;;;;5068243;28;20033;-84
2023/03/07 01:10:48;;;;;;;71.70;25.00;;;-0.10;99.90;;;;;;5051430;28;20063;-84
2023/03/07 01:13:17;;;;;;;71.55;28.67;;;-0.10;99.90;;;;;;5034564;28;20040;-83
2023/03/07 01:15:43;;;;;;;68.95;26.95;;;-0.10;99.90;;;;;;5034491;28;20021;-83
2023/03/07 01:18:10;;;;;;;70.88;27.42;;;-0.10;99.90;;;;;;5034197;28;20025;-84
2023/03/07 01:20:37;;;;;;;66.88;26.35;;;-0.20;99.90;;;;;;5050145;28;20041;-83
2023/03/07 01:23:04;;;;;;;78.70;29.90;;;-0.20;99.90;;;;;;5034317;28;20163;-83
2023/03/07 01:25:31;;;;;;;76.40;28.17;;;-0.20;99.90;;;;;;5034935;28;20120;-84
2023/03/07 01:27:57;;;;;;;78.45;29.10;;;-0.20;99.90;;;;;;5051327;28;20033;-84
2023/03/07 01:30:27;;;;;;;73.45;28.15;;;-0.20;99.90;;;;;;5035776;28;20017;-84
2023/03/07 01:32:57;;;;;;;77.03;27.40;;;-0.10;99.90;;;;;;5052801;28;20086;-84
2023/03/07 01:35:24;;;;;;;88.65;29.90;;;-0.10;99.90;;;;;;5050419;28;20021;-84
2023/03/07 01:37:52;;;;;;;85.32;29.20;;;-0.20;99.90;;;;;;5034816;28;20439;-84
2023/03/07 01:40:20;;;;;;;76.57;27.42;;;-0.20;99.90;;;;;;5034148;28;20040;-83
2023/03/07 01:42:46;;;;;;;77.75;28.33;;;-0.20;99.90;;;;;;5034653;28;20028;-83
2023/03/07 01:45:12;;;;;;;82.30;28.73;;;-0.20;99.90;;;;;;5050897;28;20491;-83
2023/03/07 01:47:42;;;;;;;78.18;29.73;;;-0.20;99.90;;;;;;5034614;28;20543;-83
2023/03/07 01:50:16;;;;;;;81.72;30.90;;;-0.20;99.90;;;;;;5050606;28;20033;-83
2023/03/07 01:52:47;;;;;;;81.20;29.63;;;-0.20;99.90;;;;;;5036581;28;20040;-84
2023/03/07 01:55:16;;;;;;;77.77;27.37;;;-0.20;99.90;;;;;;5038304;28;20441;-83
2023/03/07 01:57:48;;;;;;;79.93;29.42;;;-0.20;99.90;;;;;;5038189;28;20342;-84
2023/03/07 02:00:24;;;;;;;80.22;28.73;;;-0.30;99.90;;;;;;5038143;28;20032;-84
2023/03/07 02:06:00;;;;;;;82.03;30.45;;;-0.30;99.90;;;;;;5059883;28;20413;-83
2023/03/07 02:08:28;;;;;;;85.78;31.60;;;-0.30;99.90;;;;;;5038251;28;20079;-83
2023/03/07 02:10:53;;;;;;;78.28;31.05;;;-0.30;99.90;;;;;;5037585;28;20091;-83
2023/03/07 02:13:19;;;;;;;86.93;33.30;;;-0.30;99.90;;;;;;5070887;28;20033;-84
2023/03/07 02:15:46;;;;;;;92.13;32.60;;;-0.30;99.90;;;;;;5037966;28;20026;-83
2023/03/07 02:18:16;;;;;;;89.47;31.20;;;-0.30;99.90;;;;;;5055603;28;20029;-83
2023/03/07 02:21:16;;;;;;;86.20;34.75;;;-0.30;99.90;;;;;;5034781;28;20084;-83
2023/03/07 02:24:00;;;;;;;86.13;30.85;;;-0.30;99.90;;;;;;5053744;28;20056;-84
2023/03/07 02:26:29;;;;;;;89.70;34.40;;;-0.30;99.90;;;;;;5088260;28;20025;-83
2023/03/07 02:28:57;;;;;;;87.28;32.17;;;-0.30;99.90;;;;;;5038759;28;20565;-83
2023/03/07 02:31:24;;;;;;;92.90;31.60;;;-0.30;99.90;;;;;;5037457;28;20521;-84
2023/03/07 02:33:50;;;;;;;89.88;32.65;;;-0.20;99.90;;;;;;5037753;28;20064;-83
2023/03/07 02:36:34;;;;;;;87.50;31.15;;;-0.30;99.90;;;;;;5037640;28;20053;-83
2023/03/07 02:39:13;;;;;;;89.25;32.28;;;-0.30;99.90;;;;;;5039220;28;20029;-83
2023/03/07 02:41:39;;;;;;;90.00;33.28;;;-0.30;99.90;;;;;;5037545;28;20071;-84
2023/03/07 02:44:13;;;;;;;90.65;34.05;;;-0.20;99.90;;;;;;5038685;28;20723;-83
2023/03/07 02:46:40;;;;;;;92.50;32.50;;;-0.20;99.90;;;;;;5064462;28;20029;-83
2023/03/07 02:49:31;;;;;;;102.00;36.22;;;-0.30;99.90;;;;;;5037376;28;20059;-84
2023/03/07 02:51:59;;;;;;;98.97;34.53;;;-0.20;99.90;;;;;;5035289;28;20484;-83
2023/03/07 02:54:25;;;;;;;103.28;34.38;;;-0.20;99.90;;;;;;5037262;28;20123;-84
2023/03/07 02:56:52;;;;;;;97.78;34.17;;;-0.20;99.90;;;;;;5037392;28;20120;-83
2023/03/07 02:59:18;;;;;;;112.18;33.92;;;-0.20;99.90;;;;;;5036176;28;20037;-83
2023/03/07 03:01:44;;;;;;;101.10;34.30;;;-0.20;99.90;;;;;;5037256;28;20545;-84
2023/03/07 03:04:10;;;;;;;109.60;36.25;;;-0.20;99.90;;;;;;5053296;28;20025;-83
2023/03/07 03:06:36;;;;;;;92.18;31.77;;;-0.20;99.90;;;;;;5037380;28;20499;-84
2023/03/07 03:09:20;;;;;;;92.20;31.92;;;-0.20;99.90;;;;;;5037088;28;20053;-84
2023/03/07 03:11:45;;;;;;;90.20;30.63;;;-0.20;99.90;;;;;;5087338;28;20389;-83
2023/03/07 03:14:12;;;;;;;93.03;32.05;;;-0.20;99.90;;;;;;5053653;28;20021;-83
2023/03/07 03:16:56;;;;;;;100.13;32.50;;;-0.20;99.90;;;;;;5037245;28;20025;-83
2023/03/07 03:20:00;;;;;;;92.75;32.08;;;-0.20;99.90;;;;;;5043874;28;20033;-84
2023/03/07 03:22:25;;;;;;;84.30;31.27;;;-0.10;99.90;;;;;;5085886;28;20472;-84
2023/03/07 03:24:51;;;;;;;80.70;30.75;;;-0.20;99.90;;;;;;5036541;28;20104;-84
2023/03/07 03:27:19;;;;;;;88.82;30.38;;;-0.20;99.90;;;;;;5034957;28;20104;-83
2023/03/07 03:29:48;;;;;;;79.55;29.88;;;-0.10;99.90;;;;;;5036811;28;20040;-83
2023/03/07 03:32:14;;;;;;;93.32;32.83;;;-0.20;99.90;;;;;;5070134;28;20059;-83
2023/03/07 03:34:42;;;;;;;82.07;31.50;;;-0.10;99.90;;;;;;5036893;28;20037;-84
2023/03/07 03:37:07;;;;;;;87.22;32.85;;;-0.10;99.90;;;;;;5036686;28;20055;-84
2023/03/07 03:39:33;;;;;;;99.18;34.45;;;-0.10;99.90;;;;;;5036085;28;20112;-84
2023/03/07 03:42:36;;;;;;;104.90;36.30;;;-0.10;99.90;;;;;;5052720;28;20029;-83
2023/03/07 03:45:02;;;;;;;112.13;36.85;;;-0.10;99.90;;;;;;5036477;28;20376;-83
2023/03/07 03:47:28;;;;;;;115.30;39.60;;;-0.10;99.90;;;;;;5028411;28;20109;-83
2023/03/07 03:49:54;;;;;;;120.30;41.28;;;-0.10;99.90;;;;;;5035322;28;20053;-83
2023/03/07 03:52:22;;;;;;;111.75;41.47;;;0.00;99.90;;;;;;5050410;28;20025;-83
2023/03/07 03:54:48;;;;;;;131.70;43.70;;;0.00;99.90;;;;;;5036353;28;20028;-83
2023/03/07 03:57:16;;;;;;;133.48;43.08;;;-0.10;99.90;;;;;;5036241;28;20074;-83
2023/03/07 03:59:42;;;;;;;128.02;45.17;;;-0.10;99.90;;;;;;5032610;28;20433;-83
2023/03/07 04:02:08;;;;;;;126.45;45.60;;;0.00;99.90;;;;;;5032572;28;20087;-84
2023/03/07 04:04:34;;;;;;;140.98;47.92;;;0.00;99.90;;;;;;5035707;28;20021;-84
2023/03/07 04:10:47;;;;;;;141.35;48.45;;;-0.10;99.90;;;;;;5047226;28;20074;-84
2023/03/07 04:13:13;;;;;;;163.38;50.03;;;-0.10;99.90;;;;;;5035699;28;20028;-83
2023/03/07 04:15:39;;;;;;;138.40;48.53;;;-0.10;99.90;;;;;;5035014;28;20032;-84
2023/03/07 04:18:04;;;;;;;141.32;48.97;;;-0.10;99.90;;;;;;5035630;28;20527;-83
2023/03/07 04:20:36;;;;;;;151.95;53.00;;;-0.10;99.90;;;;;;5035722;28;20044;-85
2023/03/07 04:23:02;;;;;;;140.60;48.90;;;-0.10;99.90;;;;;;5083281;28;20458;-83
2023/03/07 04:25:28;;;;;;;145.90;49.15;;;-0.10;99.90;;;;;;5035629;28;20116;-83
2023/03/07 04:27:54;;;;;;;152.55;49.92;;;-0.10;99.90;;;;;;5051900;28;20029;-84
2023/03/07 04:30:19;;;;;;;153.70;50.15;;;0.00;99.90;;;;;;5051732;28;20610;-84
2023/03/07 04:32:45;;;;;;;151.93;49.20;;;0.00;99.90;;;;;;5036358;28;20569;-84
2023/03/07 04:35:33;;;;;;;151.88;50.42;;;0.00;99.90;;;;;;5035608;28;20016;-84
2023/03/07 04:37:59;;;;;;;151.68;50.30;;;0.00;99.90;;;;;;5051491;28;20020;-84
2023/03/07 04:40:24;;;;;;;162.00;51.58;;;0.00;99.90;;;;;;5034997;28;20340;-84
2023/03/07 04:42:50;;;;;;;151.63;52.33;;;0.00;99.90;;;;;;5035982;28;20104;-84
2023/03/07 04:45:18;;;;;;;155.77;50.88;;;0.00;99.90;;;;;;5035809;28;20024;-83
2023/03/07 04:47:55;;;;;;;159.85;53.60;;;0.00;99.90;;;;;;5035423;28;20027;-84
2023/03/07 04:50:21;;;;;;;166.95;53.85;;;0.00;99.90;;;;;;5034906;28;20040;-83
2023/03/07 04:52:53;;;;;;;187.13;55.55;;;0.00;99.90;;;;;;5035503;28;20029;-84
2023/03/07 04:55:19;;;;;;;169.88;56.03;;;-0.10;99.90;;;;;;5034960;28;20028;-84
2023/03/07 04:57:46;;;;;;;164.95;54.22;;;-0.10;99.90;;;;;;5035378;28;20051;-84
2023/03/07 05:00:13;;;;;;;160.90;54.00;;;0.00;99.90;;;;;;5051811;28;20031;-84
2023/03/07 05:03:08;;;;;;;157.75;54.53;;;0.00;99.90;;;;;;5051988;28;20028;-84
2023/03/07 05:05:34;;;;;;;170.20;51.78;;;0.00;99.90;;;;;;5034634;28;20039;-84
2023/03/07 05:08:01;;;;;;;166.38;52.22;;;-0.10;99.90;;;;;;5034621;28;20024;-84
2023/03/07 05:10:27;;;;;;;155.95;51.05;;;-0.10;99.90;;;;;;5051156;28;20125;-84
2023/03/07 05:12:53;;;;;;;146.23;48.00;;;0.00;99.90;;;;;;5034989;28;20037;-84
2023/03/07 05:15:18;;;;;;;156.00;50.40;;;-0.10;99.90;;;;;;5032665;28;20028;-84
2023/03/07 05:17:44;;;;;;;153.35;46.30;;;-0.10;99.90;;;;;;5031594;28;20673;-84
2023/03/07 05:20:11;;;;;;;143.77;46.40;;;-0.10;99.90;;;;;;5034465;28;20021;-83
2023/03/07 05:22:37;;;;;;;141.80;42.97;;;-0.10;99.90;;;;;;5051860;28;20119;-83
2023/03/07 05:25:04;;;;;;;132.75;43.28;;;0.00;99.90;;;;;;5051142;28;20021;-84
2023/03/07 05:27:30;;;;;;;135.00;44.75;;;-0.10;99.90;;;;;;5037126;28;20392;-84
2023/03/07 05:29:56;;;;;;;166.27;44.70;;;-0.10;99.90;;;;;;5038992;28;20021;-83
2023/03/07 05:32:22;;;;;;;123.13;39.08;;;-0.10;99.90;;;;;;5039034;28;20025;-83
2023/03/07 05:34:48;;;;;;;126.05;39.55;;;-0.10;99.90;;;;;;5038564;28;20365;-84
2023/03/07 05:37:14;;;;;;;136.60;40.13;;;0.00;99.90;;;;;;5055506;28;20029;-84
2023/03/07 05:39:40;;;;;;;125.03;38.08;;;0.00;99.90;;;;;;5039256;28;20078;-83
2023/03/07 05:42:06;;;;;;;132.80;40.63;;;-0.10;99.90;;;;;;5038550;28;20039;-84
2023/03/07 05:44:42;;;;;;;114.68;35.72;;;0.00;99.90;;;;;;5054915;28;20135;-83
2023/03/07 05:47:08;;;;;;;113.68;37.40;;;0.00;99.90;;;;;;5055477;28;20024;-84
2023/03/07 05:49:34;;;;;;;132.55;42.45;;;0.00;99.90;;;;;;5054921;28;20025;-83
2023/03/07 05:52:00;;;;;;;122.75;39.08;;;0.00;99.90;;;;;;5038722;28;20075;-84
2023/03/07 05:55:08;;;;;;;108.60;37.67;;;0.00;99.90;;;;;;5036931;28;20369;-84
2023/03/07 05:57:34;;;;;;;117.40;36.45;;;0.00;99.90;;;;;;5034808;28;20082;-86
2023/03/07 06:00:00;;;;;;;108.50;37.33;;;0.00;99.90;;;;;;5071986;28;20071;-85
2023/03/07 06:02:26;;;;;;;101.10;35.88;;;0.00;99.90;;;;;;5038855;28;20021;-85
2023/03/07 06:04:52;;;;;;;109.22;36.05;;;0.00;99.90;;;;;;5038564;28;20071;-85
2023/03/07 06:07:18;;;;;;;109.10;34.88;;;0.00;99.90;;;;;;5038377;28;20027;-85
2023/03/07 06:09:44;;;;;;;102.85;32.63;;;0.00;99.90;;;;;;5038744;28;20095;-85
2023/03/07 06:12:11;;;;;;;95.15;34.10;;;0.00;99.90;;;;;;5054934;28;20025;-85
2023/03/07 06:14:37;;;;;;;95.32;34.10;;;0.00;99.90;;;;;;5072111;28;20115;-84
2023/03/07 06:17:04;;;;;;;91.05;32.20;;;0.00;99.90;;;;;;5037784;28;20017;-84
2023/03/07 06:19:31;;;;;;;100.93;31.70;;;0.10;99.90;;;;;;5038472;28;20048;-85
2023/03/07 06:21:57;;;;;;;94.07;32.33;;;0.10;99.90;;;;;;5054766;28;20036;-85
2023/03/07 06:24:23;;;;;;;91.47;32.08;;;0.10;99.90;;;;;;5088742;28;20380;-85
2023/03/07 06:26:49;;;;;;;99.15;32.75;;;0.10;99.90;;;;;;5038018;28;20036;-84
2023/03/07 06:29:18;;;;;;;82.85;30.08;;;0.10;99.90;;;;;;5038899;28;20471;-85
2023/03/07 06:31:44;;;;;;;85.97;29.50;;;0.10;99.90;;;;;;5038591;28;20044;-85
2023/03/07 06:34:15;;;;;;;85.32;30.55;;;0.20;99.90;;;;;;5071503;28;20021;-85
2023/03/07 06:36:44;;;;;;;98.88;31.00;;;0.20;99.90;;;;;;5038518;28;20337;-84
2023/03/07 06:39:09;;;;;;;79.88;29.10;;;0.20;99.90;;;;;;5038022;28;20120;-85
2023/03/07 06:41:36;;;;;;;80.28;29.00;;;0.20;99.90;;;;;;5038485;28;20090;-84
2023/03/07 06:44:03;;;;;;;73.13;28.08;;;0.20;99.90;;;;;;5054903;28;20029;-85
2023/03/07 06:46:31;;;;;;;80.22;30.35;;;0.20;99.90;;;;;;5038550;28;20033;-85
2023/03/07 06:48:59;;;;;;;75.75;29.17;;;0.30;99.90;;;;;;5056286;28;20017;-85
2023/03/07 06:51:25;;;;;;;98.43;32.45;;;0.30;99.90;;;;;;5057126;28;20027;-85
2023/03/07 06:53:54;;;;;;;70.55;27.80;;;0.40;99.90;;;;;;5038632;28;20028;-85
2023/03/07 06:56:19;;;;;;;66.15;25.27;;;0.40;99.90;;;;;;5037896;28;20167;-85
2023/03/07 06:58:45;;;;;;;65.10;26.05;;;0.40;99.90;;;;;;5042527;28;20490;-85
2023/03/07 07:01:18;;;;;;;64.53;25.85;;;0.40;99.90;;;;;;5039812;28;20021;-84
2023/03/07 07:03:46;;;;;;;64.07;23.15;;;0.40;99.90;;;;;;5038735;28;20021;-84
2023/03/07 07:06:12;;;;;;;59.80;23.60;;;0.40;99.90;;;;;;5037923;28;20036;-85
2023/03/07 07:08:38;;;;;;;69.78;25.67;;;0.50;99.90;;;;;;5037810;28;20047;-85
2023/03/07 07:11:04;;;;;;;52.30;22.35;;;0.50;99.90;;;;;;5032626;28;20021;-84
2023/03/07 07:13:30;;;;;;;54.85;22.10;;;0.50;99.90;;;;;;5037226;28;20025;-85
2023/03/07 07:15:57;;;;;;;49.65;20.38;;;0.60;99.90;;;;;;5070796;28;20119;-84
2023/03/07 07:18:23;;;;;;;51.78;21.83;;;0.60;99.90;;;;;;5053761;28;20053;-84
2023/03/07 07:20:56;;;;;;;46.53;22.23;;;0.70;99.90;;;;;;5034464;28;20021;-85
2023/03/07 07:23:22;;;;;;;47.20;21.95;;;0.70;99.90;;;;;;5053755;28;20032;-84
2023/03/07 07:25:48;;;;;;;53.03;19.65;;;0.80;99.90;;;;;;5037433;28;20029;-84
2023/03/07 07:28:14;;;;;;;43.10;21.13;;;0.80;99.90;;;;;;5053633;28;20068;-85
2023/03/07 07:30:39;;;;;;;44.67;19.58;;;0.90;99.90;;;;;;5054228;28;20500;-84
2023/03/07 07:33:06;;;;;;;50.85;20.38;;;1.00;99.90;;;;;;5037297;28;20021;-84
2023/03/07 07:35:32;;;;;;;46.90;20.55;;;1.00;99.90;;;;;;5070186;28;20468;-85
2023/03/07 07:37:58;;;;;;;42.15;20.23;;;1.00;99.90;;;;;;5036834;28;20021;-84
2023/03/07 07:40:24;;;;;;;41.47;18.77;;;1.20;99.90;;;;;;5036892;28;20032;-84
2023/03/07 07:42:53;;;;;;;43.05;20.02;;;1.30;99.90;;;;;;5036846;28;20025;-84
2023/03/07 07:45:26;;;;;;;45.63;20.92;;;1.40;99.90;;;;;;5038091;28;20547;-84
2023/03/07 07:47:52;;;;;;;47.65;19.77;;;1.50;99.90;;;;;;5036068;28;20158;-84
2023/03/07 07:50:21;;;;;;;37.58;18.48;;;1.60;99.90;;;;;;5032348;28;20025;-84
2023/03/07 07:52:47;;;;;;;43.35;18.90;;;1.60;99.90;;;;;;5056026;28;20036;-84
2023/03/07 07:55:13;;;;;;;41.42;19.27;;;1.60;99.90;;;;;;5053546;28;20095;-84
2023/03/07 07:57:41;;;;;;;41.08;18.70;;;1.70;99.90;;;;;;5036432;28;20511;-84
2023/03/07 08:00:08;;;;;;;42.08;19.15;;;1.70;99.90;;;;;;5053276;28;20025;-84
2023/03/07 08:02:38;;;;;;;41.63;18.58;;;1.80;99.90;;;;;;5052961;28;20060;-84
2023/03/07 08:05:07;;;;;;;37.65;17.40;;;1.80;99.90;;;;;;5036501;28;20025;-83
2023/03/07 08:07:32;;;;;;;36.08;16.88;;;1.80;99.90;;;;;;5036774;28;20039;-84
2023/03/07 08:09:58;;;;;;;37.28;15.50;;;1.90;99.90;;;;;;5036562;28;20108;-84
2023/03/07 08:12:24;;;;;;;37.83;16.75;;;1.80;99.90;;;;;;5052626;28;20025;-84
2023/03/07 08:14:49;;;;;;;45.20;17.67;;;1.90;99.90;;;;;;5054526;28;20033;-84
2023/03/07 08:17:15;;;;;;;37.13;15.70;;;2.10;99.90;;;;;;5036744;28;20039;-84
2023/03/07 08:19:41;;;;;;;41.75;17.05;;;2.20;99.90;;;;;;5069587;28;20103;-84
2023/03/07 08:22:06;;;;;;;39.58;17.63;;;2.20;99.90;;;;;;5036554;28;20017;-84
2023/03/07 08:24:34;;;;;;;34.72;16.80;;;2.40;99.90;;;;;;5052406;28;20037;-85
2023/03/07 08:27:00;;;;;;;35.95;17.25;;;2.50;99.90;;;;;;5052206;28;20017;-85
2023/03/07 08:29:32;;;;;;;35.47;17.02;;;2.60;99.90;;;;;;5052707;28;20040;-85
2023/03/07 08:32:53;;;;;;;32.70;16.15;;;2.60;99.90;;;;;;5035970;28;20032;-85
2023/03/07 08:35:19;;;;;;;43.10;18.20;;;2.60;99.90;;;;;;5060741;28;20560;-85
2023/03/07 08:37:47;;;;;;;38.72;15.52;;;2.70;99.90;;;;;;5058748;28;20113;-85
2023/03/07 08:40:16;;;;;;;34.25;17.15;;;2.50;99.90;;;;;;5032701;28;20017;-85
2023/03/07 08:42:44;;;;;;;34.17;15.60;;;2.50;99.90;;;;;;5036812;28;20414;-85
2023/03/07 08:45:11;;;;;;;33.13;15.45;;;2.60;99.90;;;;;;5050676;28;20020;-85
2023/03/07 08:47:36;;;;;;;29.70;14.65;;;2.70;99.90;;;;;;5043493;28;20031;-85
2023/03/07 08:50:04;;;;;;;33.25;14.05;;;2.60;99.90;;;;;;5052314;28;20025;-85
2023/03/07 08:52:29;;;;;;;29.88;14.32;;;2.70;99.90;;;;;;5035108;28;20492;-85
2023/03/07 08:54:55;;;;;;;29.52;14.10;;;2.80;99.90;;;;;;5052359;28;20033;-85
2023/03/07 08:57:21;;;;;;;36.85;15.23;;;2.60;99.90;;;;;;5053064;28;20406;-85
2023/03/07 08:59:46;;;;;;;28.58;14.00;;;2.50;99.90;;;;;;5047575;28;20088;-84
2023/03/07 09:02:12;;;;;;;32.30;14.93;;;2.40;99.90;;;;;;5034765;28;20029;-86
2023/03/07 09:04:38;;;;;;;32.60;14.40;;;2.40;99.90;;;;;;5035306;28;20438;-86
2023/03/07 09:07:03;;;;;;;32.22;15.73;;;2.50;99.90;;;;;;5035509;28;20419;-85
2023/03/07 09:09:30;;;;;;;28.70;14.45;;;2.60;99.90;;;;;;5065331;28;20067;-85
2023/03/07 09:11:56;;;;;;;32.38;15.40;;;2.50;99.90;;;;;;5052213;28;20032;-85
2023/03/07 09:14:22;;;;;;;29.35;13.63;;;2.70;99.90;;;;;;5052128;28;20028;-85
2023/03/07 09:16:48;;;;;;;39.33;17.65;;;2.80;99.90;;;;;;5051658;28;20476;-85
2023/03/07 09:19:14;;;;;;;31.00;16.42;;;2.90;99.90;;;;;;5034694;28;20520;-85
2023/03/07 09:21:40;;;;;;;26.63;13.43;;;3.10;99.90;;;;;;5035042;28;20033;-85
2023/03/07 09:24:06;;;;;;;28.75;14.48;;;3.10;99.90;;;;;;5050414;28;20422;-86
2023/03/07 09:26:32;;;;;;;24.23;13.27;;;3.10;99.90;;;;;;5050541;28;20536;-85
2023/03/07 09:28:58;;;;;;;27.23;12.85;;;3.20;99.90;;;;;;5043529;28;20056;-85
2023/03/07 09:31:24;;;;;;;36.83;14.75;;;3.30;99.90;;;;;;5034683;28;20017;-85
2023/03/07 09:33:50;;;;;;;26.08;13.65;;;3.40;99.90;;;;;;5067724;28;20036;-86
2023/03/07 09:36:18;;;;;;;26.80;13.95;;;3.60;99.90;;;;;;5052802;28;20027;-85
2023/03/07 09:38:46;;;;;;;25.80;13.15;;;3.80;99.90;;;;;;5035074;28;20044;-86
2023/03/07 09:41:32;;;;;;;29.15;13.88;;;4.00;99.90;;;;;;5034577;28;20036;-85
2023/03/07 09:44:03;;;;;;;27.15;13.13;;;3.80;99.90;;;;;;5051141;28;20495;-85
2023/03/07 09:47:16;;;;;;;28.25;13.85;;;3.80;99.90;;;;;;5028457;28;20033;-85
2023/03/07 09:49:53;;;;;;;29.20;13.88;;;3.60;99.90;;;;;;5050788;28;20535;-86
2023/03/07 09:52:23;;;;;;;29.48;12.93;;;3.60;99.90;;;;;;5034064;28;20499;-88
2023/03/07 09:54:56;;;;;;;35.53;14.63;;;3.40;99.90;;;;;;5039179;28;20511;-88
2023/03/07 09:57:30;;;;;;;29.40;13.50;;;3.20;99.90;;;;;;5038819;28;20036;-88
2023/03/07 10:00:05;;;;;;;23.75;11.43;;;3.10;99.90;;;;;;5054081;28;20118;-88
2023/03/07 10:02:48;;;;;;;30.17;12.32;;;2.90;99.90;;;;;;5058596;28;20079;-88
2023/03/07 10:05:22;;;;;;;25.15;12.15;;;2.90;99.90;;;;;;5038015;28;20067;-88
2023/03/07 10:07:48;;;;;;;29.52;11.95;;;2.90;99.90;;;;;;5038380;28;20029;-89
2023/03/07 10:10:37;;;;;;;25.73;13.10;;;3.10;99.90;;;;;;5053627;28;20480;-88
2023/03/07 10:13:18;;;;;;;27.50;11.68;;;3.40;99.90;;;;;;5037561;28;20388;-89
2023/03/07 10:15:53;;;;;;;27.98;13.07;;;3.80;99.90;;;;;;5042181;28;20096;-89
2023/03/07 10:18:50;;;;;;;26.05;11.77;;;4.20;99.90;;;;;;5041810;28;20091;-89
2023/03/07 10:21:50;;;;;;;22.85;11.63;;;4.30;99.90;;;;;;5038474;28;20032;-89
2023/03/07 10:24:43;;;;;;;24.48;12.32;;;4.90;99.90;;;;;;5044957;28;20029;-89
2023/03/07 10:27:11;;;;;;;24.45;11.88;;;5.30;99.90;;;;;;5059935;28;20025;-91
2023/03/07 10:29:48;;;;;;;31.42;13.00;;;5.20;99.90;;;;;;5056356;28;20021;-90
2023/03/07 10:32:52;;;;;;;30.73;13.90;;;5.10;99.90;;;;;;5050587;28;20082;-89
2023/03/07 10:35:40;;;;;;;20.15;10.90;;;4.70;99.90;;;;;;5057005;28;20028;-89
2023/03/07 10:38:22;;;;;;;33.42;13.68;;;4.30;99.90;;;;;;5098644;28;20060;-89
2023/03/07 10:41:00;;;;;;;24.45;13.30;;;3.90;99.90;;;;;;5047820;28;20496;-90
2023/03/07 10:43:31;;;;;;;33.03;12.20;;;3.90;99.90;;;;;;5040050;28;20025;-89
2023/03/07 10:46:14;;;;;;;23.52;11.30;;;3.80;99.90;;;;;;5039579;28;20067;-89
2023/03/07 10:48:48;;;;;;;26.85;12.23;;;3.80;99.90;;;;;;5057045;28;20503;-90
2023/03/07 10:51:35;;;;;;;23.30;10.85;;;4.00;99.90;;;;;;5056402;28;20053;-90
2023/03/07 10:54:03;;;;;;;28.40;11.50;;;4.20;99.90;;;;;;5040851;28;20021;-89
2023/03/07 10:56:28;;;;;;;25.92;12.00;;;4.30;99.90;;;;;;5056687;28;20063;-89
2023/03/07 10:59:10;;;;;;;30.90;12.10;;;4.40;99.90;;;;;;5039504;28;20480;-90
2023/03/07 11:01:54;;;;;;;26.17;11.07;;;4.40;99.90;;;;;;5036905;28;20037;-90
2023/03/07 11:04:22;;;;;;;26.77;11.77;;;4.60;99.90;;;;;;5057147;28;20021;-89
2023/03/07 11:06:59;;;;;;;24.08;11.02;;;4.60;99.90;;;;;;5073397;28;20117;-89
2023/03/07 11:09:44;;;;;;;21.45;11.23;;;4.60;99.90;;;;;;5039448;28;20040;-90
2023/03/07 11:12:17;;;;;;;19.08;11.07;;;4.80;99.90;;;;;;5072667;28;20033;-89
2023/03/07 11:15:02;;;;;;;23.90;10.95;;;4.80;99.90;;;;;;5056213;28;20159;-89
2023/03/07 11:17:43;;;;;;;24.52;11.85;;;4.90;99.90;;;;;;5039213;28;20029;-89
2023/03/07 11:20:22;;;;;;;41.30;12.65;;;4.80;99.90;;;;;;5055341;28;20074;-90
2023/03/07 11:22:49;;;;;;;26.95;12.32;;;4.70;99.90;;;;;;5064255;28;20025;-90
2023/03/07 11:25:20;;;;;;;36.17;12.93;;;4.70;99.90;;;;;;5038775;28;20159;-90
2023/03/07 11:27:55;;;;;;;28.23;11.18;;;4.70;99.90;;;;;;5055438;28;20025;-89
2023/03/07 11:30:44;;;;;;;35.38;12.55;;;4.60;99.90;;;;;;5038962;28;20056;-89
2023/03/07 11:33:52;;;;;;;25.33;11.30;;;4.70;99.90;;;;;;5041805;28;20029;-88
2023/03/07 11:36:31;;;;;;;22.23;10.95;;;4.60;99.90;;;;;;5059184;28;20025;-88
2023/03/07 11:39:40;;;;;;;21.90;11.10;;;4.70;99.90;;;;;;5074601;28;20037;-89
2023/03/07 11:42:21;;;;;;;29.75;13.00;;;4.80;99.90;;;;;;5051039;28;20411;-89
2023/03/07 11:48:52;;;;;;;31.80;12.50;;;4.60;99.90;;;;;;5054441;28;20028;-88
2023/03/07 11:51:40;;;;;;;39.80;12.20;;;4.70;99.90;;;;;;5040160;28;20017;-88
2023/03/07 11:54:18;;;;;;;28.25;11.90;;;4.90;99.90;;;;;;5057461;28;20031;-88
2023/03/07 11:56:48;;;;;;;28.23;12.20;;;5.30;99.90;;;;;;5074297;28;20033;-89
2023/03/07 11:59:25;;;;;;;25.48;10.80;;;5.40;99.90;;;;;;5057694;28;20476;-88
2023/03/07 12:01:55;;;;;;;27.17;10.32;;;5.60;99.90;;;;;;5041196;28;20163;-88
2023/03/07 12:04:42;;;;;;;26.17;11.38;;;6.00;99.90;;;;;;5040196;28;20021;-88
2023/03/07 12:11:05;;;;;;;24.83;11.35;;;5.50;99.90;;;;;;5056662;28;20079;-89
2023/03/07 12:13:42;;;;;;;27.30;12.68;;;5.20;99.90;;;;;;5039058;28;20029;-88
2023/03/07 12:16:27;;;;;;;64.47;15.90;;;4.90;99.90;;;;;;5054172;28;20048;-88
2023/03/07 12:19:31;;;;;;;22.42;10.57;;;4.70;99.90;;;;;;5040277;28;20029;-89
2023/03/07 12:22:12;;;;;;;26.65;10.65;;;4.70;99.90;;;;;;5038107;28;20028;-89
2023/03/07 12:25:00;;;;;;;19.85;10.68;;;4.60;99.90;;;;;;5038606;28;20428;-88
2023/03/07 12:27:41;;;;;;;22.73;10.63;;;4.50;99.90;;;;;;5033717;28;20043;-88
2023/03/07 12:30:35;;;;;;;20.90;10.35;;;4.60;99.90;;;;;;5034935;28;20124;-88
2023/03/07 12:33:04;;;;;;;26.52;12.02;;;4.50;99.90;;;;;;5029991;28;20124;-88
2023/03/07 12:35:41;;;;;;;25.05;10.82;;;4.30;99.90;;;;;;5054313;28;20063;-88
2023/03/07 12:38:15;;;;;;;43.13;12.82;;;4.10;99.90;;;;;;5038458;28;20530;-88
2023/03/07 12:40:46;;;;;;;23.80;11.00;;;4.10;99.90;;;;;;5039286;28;20033;-88
2023/03/07 12:43:41;;;;;;;23.05;12.32;;;3.90;99.90;;;;;;5039523;28;20453;-88
2023/03/07 12:46:32;;;;;;;23.02;11.02;;;3.90;99.90;;;;;;5038795;28;20071;-89
2023/03/07 12:48:57;;;;;;;23.53;12.77;;;3.90;99.90;;;;;;5038762;28;20025;-89
2023/03/07 12:51:30;;;;;;;19.92;10.75;;;4.10;99.90;;;;;;5038591;28;20702;-89
2023/03/07 12:54:11;;;;;;;40.88;13.15;;;4.10;99.90;;;;;;5037647;28;20115;-89
2023/03/07 12:57:00;;;;;;;25.45;11.85;;;4.30;99.90;;;;;;5051542;28;20116;-89
2023/03/07 12:59:28;;;;;;;62.28;13.50;;;4.50;99.90;;;;;;5038203;28;20025;-89
2023/03/07 13:01:59;;;;;;;24.75;12.38;;;4.70;99.90;;;;;;5039211;28;20087;-88
2023/03/07 13:05:09;;;;;;;30.50;13.40;;;4.80;99.90;;;;;;5040731;28;20447;-89
2023/03/07 13:07:35;;;;;;;33.67;13.20;;;4.60;99.90;;;;;;5047229;28;20507;-89
2023/03/07 13:10:05;;;;;;;29.80;13.55;;;4.40;99.90;;;;;;5070301;28;20037;-88